createdAt,value
2017-06-04T00:00:10.243Z,78.90
2017-06-04T00:02:36.472Z,79.10
2017-06-04T00:05:02.714Z,79.00
2017-06-04T00:07:29.242Z,78.70
2017-06-04T00:09:55.856Z,78.00
2017-06-04T00:12:22.089Z,77.40
2017-06-04T00:14:49.088Z,78.00
2017-06-04T00:17:15.307Z,77.30
2017-06-04T00:19:42.465Z,76.40
2017-06-04T00:22:08.662Z,75.90
2017-06-04T00:24:34.860Z,76.40
2017-06-04T00:27:01.075Z,77.00
2017-06-04T00:29:27.973Z,78.20
2017-06-04T00:31:54.182Z,78.10
2017-06-04T00:34:20.339Z,78.10
2017-06-04T00:36:46.564Z,78.60
2017-06-04T00:39:17.005Z,77.30
2017-06-04T00:41:43.546Z,76.60
2017-06-04T00:44:09.727Z,77.30
2017-06-04T00:46:35.927Z,76.80
2017-06-04T00:49:02.120Z,77.00
2017-06-04T00:51:28.321Z,77.20
2017-06-04T00:53:54.534Z,78.20
2017-06-04T00:56:20.703Z,78.20
2017-06-04T00:58:46.973Z,78.00
2017-06-04T01:01:13.251Z,78.10
2017-06-04T01:03:39.915Z,78.70
2017-06-04T01:06:06.116Z,78.60
2017-06-04T01:08:32.288Z,78.10
2017-06-04T01:10:59.216Z,78.70
2017-06-04T01:13:25.424Z,78.60
2017-06-04T01:15:51.606Z,78.10
2017-06-04T01:18:18.212Z,77.90
2017-06-04T01:20:45.089Z,78.50
2017-06-04T01:23:11.264Z,77.60
2017-06-04T01:25:37.473Z,78.30
2017-06-04T01:28:03.684Z,77.00
2017-06-04T01:30:29.879Z,77.60
2017-06-04T01:32:56.865Z,77.10
2017-06-04T01:35:23.121Z,77.00
2017-06-04T01:37:49.334Z,76.80
2017-06-04T01:40:15.552Z,76.60
2017-06-04T01:42:41.752Z,76.00
2017-06-04T01:45:08.817Z,77.10
2017-06-04T01:47:36.107Z,76.60
2017-06-04T01:50:02.308Z,76.90
2017-06-04T01:52:28.508Z,76.30
2017-06-04T01:54:54.710Z,77.50
2017-06-04T01:57:20.971Z,78.30
2017-06-04T01:59:47.887Z,79.60
2017-06-04T02:02:14.148Z,78.10
2017-06-04T02:04:41.298Z,78.50
2017-06-04T02:07:08.225Z,78.20
2017-06-04T02:09:35.145Z,78.90
2017-06-04T02:12:01.547Z,77.70
2017-06-04T02:14:28.412Z,77.70
2017-06-04T02:16:54.637Z,76.70
2017-06-04T02:19:21.203Z,77.00
2017-06-04T02:21:47.388Z,77.50
2017-06-04T02:24:13.595Z,77.60
2017-06-04T02:26:40.153Z,77.50
2017-06-04T02:29:06.314Z,77.40
2017-06-04T02:31:32.505Z,78.00
2017-06-04T02:33:58.667Z,78.40
2017-06-04T02:36:24.884Z,78.60
2017-06-04T02:38:51.453Z,77.50
2017-06-04T02:41:17.680Z,77.30
2017-06-04T02:43:43.873Z,77.90
2017-06-04T02:46:10.073Z,77.80
2017-06-04T02:48:36.272Z,77.40
2017-06-04T02:51:03.219Z,77.00
2017-06-04T02:53:30.155Z,77.60
2017-06-04T02:55:56.347Z,76.80
2017-06-04T02:58:22.559Z,75.70
2017-06-04T03:00:48.707Z,75.30
2017-06-04T03:03:14.890Z,76.20
2017-06-04T03:05:41.810Z,76.30
2017-06-04T03:08:07.964Z,76.70
2017-06-04T03:10:34.856Z,76.90
2017-06-04T03:13:01.060Z,76.50
2017-06-04T03:15:27.236Z,76.90
2017-06-04T03:17:53.427Z,77.00
2017-06-04T03:20:20.775Z,77.60
2017-06-04T03:22:47.037Z,76.60
2017-06-04T03:25:13.228Z,75.50
2017-06-04T03:27:40.132Z,75.30
2017-06-04T03:30:08.072Z,76.20
2017-06-04T03:32:35.007Z,76.10
2017-06-04T03:35:01.171Z,75.80
2017-06-04T03:37:27.372Z,76.00
2017-06-04T03:39:53.673Z,76.40
2017-06-04T03:42:19.870Z,77.20
2017-06-04T03:44:46.794Z,78.90
2017-06-04T03:47:13.027Z,78.50
2017-06-04T03:49:39.960Z,79.00
2017-06-04T03:52:06.137Z,78.70
2017-06-04T03:54:32.335Z,78.10
2017-06-04T03:56:58.529Z,78.80
2017-06-04T03:59:39.648Z,76.30
2017-06-04T04:02:06.593Z,78.50
2017-06-04T04:04:33.501Z,78.10
2017-06-04T04:06:59.695Z,76.60
2017-06-04T04:09:25.862Z,78.00
2017-06-04T04:11:52.857Z,77.80
2017-06-04T04:14:19.850Z,77.00
2017-06-04T04:16:46.074Z,78.50
2017-06-04T04:19:12.240Z,79.30
2017-06-04T04:21:39.681Z,77.50
2017-06-04T04:24:05.875Z,78.20
2017-06-04T04:26:32.049Z,77.40
2017-06-04T04:28:58.271Z,77.10
2017-06-04T04:31:24.456Z,76.70
2017-06-04T04:33:50.647Z,76.30
2017-06-04T04:36:17.558Z,77.40
2017-06-04T04:38:43.803Z,76.30
2017-06-04T04:41:09.982Z,77.10
2017-06-04T04:43:36.176Z,77.70
2017-06-04T04:46:03.123Z,77.10
2017-06-04T04:48:29.317Z,77.10
2017-06-04T04:50:55.550Z,74.70
2017-06-04T04:53:21.726Z,74.90
2017-06-04T04:55:48.262Z,74.30
2017-06-04T04:58:15.268Z,73.40
2017-06-04T05:00:42.068Z,73.40
2017-06-04T05:03:08.942Z,72.90
2017-06-04T05:05:35.150Z,72.80
2017-06-04T05:08:01.361Z,73.60
2017-06-04T05:10:27.595Z,72.90
2017-06-04T05:12:53.839Z,73.50
2017-06-04T05:15:20.064Z,72.90
2017-06-04T05:17:46.243Z,73.00
2017-06-04T05:20:12.480Z,73.40
2017-06-04T05:22:39.426Z,74.60
2017-06-04T05:25:12.707Z,73.20
2017-06-04T05:27:47.116Z,73.10
2017-06-04T05:30:13.339Z,75.10
2017-06-04T05:32:39.494Z,75.50
2017-06-04T05:35:07.019Z,76.80
2017-06-04T05:37:33.251Z,74.30
2017-06-04T05:39:59.403Z,74.60
2017-06-04T05:42:25.587Z,75.10
2017-06-04T05:44:51.819Z,74.80
2017-06-04T05:47:18.633Z,75.50
2017-06-04T05:49:44.860Z,74.00
2017-06-04T05:52:11.108Z,74.00
2017-06-04T05:54:37.429Z,73.40
2017-06-04T05:57:03.600Z,73.90
2017-06-04T05:59:29.790Z,73.60
2017-06-04T06:01:56.587Z,74.20
2017-06-04T06:04:22.776Z,74.20
2017-06-04T06:06:48.966Z,73.70
2017-06-04T06:09:15.173Z,73.60
2017-06-04T06:11:42.108Z,74.10
2017-06-04T06:14:08.276Z,72.60
2017-06-04T06:16:34.501Z,73.60
2017-06-04T06:19:01.729Z,74.10
2017-06-04T06:21:27.933Z,74.00
2017-06-04T06:23:54.205Z,74.60
2017-06-04T06:26:21.175Z,74.90
2017-06-04T06:28:47.387Z,73.30
2017-06-04T06:31:14.307Z,75.30
2017-06-04T06:33:40.482Z,74.60
2017-06-04T06:36:06.742Z,74.40
2017-06-04T06:38:32.941Z,73.10
2017-06-04T06:41:00.012Z,73.50
2017-06-04T06:43:26.342Z,72.50
2017-06-04T06:45:52.511Z,71.60
2017-06-04T06:48:19.448Z,69.50
2017-06-04T06:50:47.180Z,69.50
2017-06-04T06:53:13.388Z,72.10
2017-06-04T06:55:39.877Z,67.80
2017-06-04T06:58:07.967Z,68.80
2017-06-04T07:00:35.014Z,69.80
2017-06-04T07:03:01.939Z,67.70
2017-06-04T07:05:28.139Z,67.40
2017-06-04T07:07:55.072Z,68.10
2017-06-04T07:10:21.819Z,67.00
2017-06-04T07:12:49.481Z,66.60
2017-06-04T07:15:15.720Z,67.70
2017-06-04T07:17:41.951Z,66.50
2017-06-04T07:20:08.151Z,66.90
2017-06-04T07:22:35.899Z,65.50
2017-06-04T07:25:02.059Z,66.70
2017-06-04T07:27:28.231Z,65.80
2017-06-04T07:29:55.374Z,66.40
2017-06-04T07:32:22.323Z,67.00
2017-06-04T07:34:48.524Z,66.10
2017-06-04T07:37:14.686Z,66.80
2017-06-04T07:39:41.079Z,67.80
2017-06-04T07:42:09.890Z,67.30
2017-06-04T07:44:36.071Z,69.50
2017-06-04T07:47:02.328Z,66.00
2017-06-04T07:49:28.507Z,66.90
2017-06-04T07:51:55.439Z,68.80
2017-06-04T07:54:22.162Z,68.80
2017-06-04T07:56:48.335Z,68.50
2017-06-04T07:59:14.557Z,67.40
2017-06-04T08:01:40.853Z,66.80
2017-06-04T08:04:07.573Z,64.10
2017-06-04T08:06:33.796Z,66.50
2017-06-04T08:09:00.023Z,61.30
2017-06-04T08:11:26.291Z,60.70
2017-06-04T08:13:53.266Z,62.30
2017-06-04T08:16:19.736Z,60.00
2017-06-04T08:18:45.929Z,61.50
2017-06-04T08:21:12.124Z,61.80
2017-06-04T08:23:38.449Z,59.80
2017-06-04T08:26:05.462Z,56.90
2017-06-04T08:28:31.676Z,56.60
2017-06-04T08:30:57.889Z,56.90
2017-06-04T08:33:24.152Z,55.20
2017-06-04T08:35:50.360Z,54.00
2017-06-04T08:38:16.519Z,53.80
2017-06-04T08:40:42.729Z,52.20
2017-06-04T08:43:08.948Z,53.30
2017-06-04T08:45:35.147Z,53.50
2017-06-04T08:48:01.354Z,54.80
2017-06-04T08:50:27.549Z,54.30
2017-06-04T08:52:53.742Z,56.50
2017-06-04T08:55:20.796Z,56.80
2017-06-04T08:57:46.970Z,56.10
2017-06-04T09:00:13.182Z,58.90
2017-06-04T09:02:39.341Z,59.10
2017-06-04T09:05:05.527Z,59.50
2017-06-04T09:07:31.776Z,58.40
2017-06-04T09:09:57.999Z,58.70
2017-06-04T09:12:24.222Z,57.60
2017-06-04T09:14:50.427Z,55.60
2017-06-04T09:17:16.836Z,58.40
2017-06-04T09:19:44.608Z,55.60
2017-06-04T09:22:10.849Z,52.70
2017-06-04T09:24:37.188Z,53.10
2017-06-04T09:27:03.355Z,52.50
2017-06-04T09:29:29.529Z,48.90
2017-06-04T09:31:56.520Z,50.60
2017-06-04T09:34:22.727Z,50.30
2017-06-04T09:36:48.927Z,51.40
2017-06-04T09:39:15.969Z,51.70
2017-06-04T09:41:42.162Z,49.40
2017-06-04T09:44:08.325Z,50.30
2017-06-04T09:46:35.647Z,51.90
2017-06-04T09:49:01.805Z,54.30
2017-06-04T09:51:28.795Z,53.80
2017-06-04T09:53:57.448Z,52.60
2017-06-04T09:56:24.423Z,52.90
2017-06-04T09:58:50.605Z,50.90
2017-06-04T10:01:16.808Z,46.80
2017-06-04T10:03:43.071Z,48.30
2017-06-04T10:06:10.937Z,49.70
2017-06-04T10:08:37.195Z,49.30
2017-06-04T10:11:04.463Z,49.20
2017-06-04T10:13:34.883Z,48.10
2017-06-04T10:16:02.952Z,47.20
2017-06-04T10:18:29.194Z,47.80
2017-06-04T10:20:55.434Z,45.90
2017-06-04T10:23:21.652Z,42.60
2017-06-04T10:25:47.844Z,44.20
2017-06-04T10:28:14.043Z,45.00
2017-06-04T10:30:40.248Z,42.00
2017-06-04T10:33:06.442Z,41.80
2017-06-04T10:35:32.764Z,42.50
2017-06-04T10:37:59.899Z,41.30
2017-06-04T10:40:26.165Z,41.10
2017-06-04T10:42:52.403Z,40.60
2017-06-04T10:45:23.677Z,37.60
2017-06-04T10:50:24.359Z,37.70
2017-06-04T10:52:51.382Z,36.60
2017-06-04T10:55:17.951Z,34.20
2017-06-04T10:57:44.136Z,32.60
2017-06-04T11:00:10.348Z,33.60
2017-06-04T11:02:36.513Z,35.30
2017-06-04T11:05:02.703Z,34.50
2017-06-04T11:07:28.937Z,36.50
2017-06-04T11:09:55.220Z,36.90
2017-06-04T11:12:22.203Z,40.80
2017-06-04T11:14:48.681Z,40.80
2017-06-04T11:17:14.951Z,43.50
2017-06-04T11:19:41.191Z,43.90
2017-06-04T11:22:12.203Z,42.30
2017-06-04T11:24:38.943Z,43.30
2017-06-04T11:27:05.995Z,42.60
2017-06-04T11:29:33.096Z,42.40
2017-06-04T11:32:00.130Z,44.70
2017-06-04T11:34:26.315Z,44.60
2017-06-04T11:36:52.551Z,45.10
2017-06-04T11:39:18.842Z,41.50
2017-06-04T11:41:47.275Z,35.90
2017-06-04T11:44:13.502Z,33.00
2017-06-04T11:46:39.700Z,35.40
2017-06-04T11:49:05.951Z,33.80
2017-06-04T11:51:32.170Z,35.50
2017-06-04T11:53:59.090Z,39.70
2017-06-04T11:56:25.308Z,39.50
2017-06-04T11:58:51.917Z,39.50
2017-06-04T12:01:18.123Z,41.20
2017-06-04T12:03:45.171Z,42.20
2017-06-04T12:06:11.736Z,41.50
2017-06-04T12:08:37.931Z,43.20
2017-06-04T12:11:06.556Z,41.40
2017-06-04T12:13:32.785Z,38.70
2017-06-04T12:15:59.941Z,35.70
2017-06-04T12:18:26.159Z,36.10
2017-06-04T12:30:37.417Z,41.90
2017-06-04T12:33:03.629Z,42.00
2017-06-04T12:35:30.608Z,42.80
2017-06-04T12:37:56.914Z,43.40
2017-06-04T12:40:23.104Z,45.30
2017-06-04T12:42:50.055Z,47.30
2017-06-04T12:45:17.021Z,47.20
2017-06-04T12:47:43.192Z,46.30
2017-06-04T12:50:09.396Z,46.80
2017-06-04T12:52:36.350Z,47.90
2017-06-04T12:55:03.275Z,46.10
2017-06-04T12:57:29.853Z,46.40
2017-06-04T12:59:56.050Z,43.50
2017-06-04T13:02:22.240Z,46.10
2017-06-04T13:04:49.254Z,45.70
2017-06-04T13:07:17.456Z,45.60
2017-06-04T13:09:44.436Z,46.20
2017-06-04T13:12:10.709Z,46.10
2017-06-04T13:14:36.911Z,44.30
2017-06-04T13:17:04.150Z,45.80
2017-06-04T13:19:31.222Z,41.20
2017-06-04T13:21:57.637Z,41.60
2017-06-04T13:24:25.982Z,41.70
2017-06-04T13:26:53.910Z,35.30
2017-06-04T13:29:20.105Z,35.30
2017-06-04T13:31:47.420Z,29.90
2017-06-04T13:34:15.649Z,29.80
2017-06-04T13:36:43.012Z,28.70
2017-06-04T13:39:09.393Z,29.50
2017-06-04T13:41:36.298Z,34.00
2017-06-04T13:44:02.530Z,34.00
2017-06-04T13:46:28.735Z,38.20
2017-06-04T13:48:54.926Z,39.00
2017-06-04T13:51:22.006Z,43.60
2017-06-04T13:53:49.262Z,43.20
2017-06-04T13:56:15.925Z,43.40
2017-06-04T13:58:42.242Z,41.00
2017-06-04T14:01:08.726Z,42.70
2017-06-04T14:03:35.003Z,41.30
2017-06-04T14:06:02.020Z,41.50
2017-06-04T14:08:29.256Z,39.70
2017-06-04T14:10:55.443Z,39.60
2017-06-04T14:13:21.808Z,41.00
2017-06-04T14:15:48.023Z,41.30
2017-06-04T14:18:14.251Z,42.90
2017-06-04T14:20:40.555Z,42.20
2017-06-04T14:23:06.911Z,41.80
2017-06-04T14:25:33.123Z,41.70
2017-06-04T14:27:59.338Z,42.20
2017-06-04T14:30:25.564Z,43.00
2017-06-04T14:32:51.791Z,43.60
2017-06-04T14:35:18.890Z,42.30
2017-06-04T14:37:45.138Z,41.70
2017-06-04T14:40:27.641Z,41.50
2017-06-04T14:42:53.839Z,40.30
2017-06-04T14:45:20.495Z,40.50
2017-06-04T14:47:47.123Z,40.80
2017-06-04T14:50:13.332Z,41.70
2017-06-04T14:52:39.569Z,40.30
2017-06-04T14:55:05.852Z,40.80
2017-06-04T14:57:32.841Z,41.50
2017-06-04T14:59:59.092Z,41.40
2017-06-04T15:02:25.290Z,42.30
2017-06-04T15:04:51.470Z,43.10
2017-06-04T15:07:17.695Z,41.00
2017-06-04T15:09:43.874Z,41.10
2017-06-04T15:12:10.760Z,41.80
2017-06-04T15:14:38.715Z,39.50
2017-06-04T15:17:04.979Z,39.80
2017-06-04T15:19:32.017Z,41.00
2017-06-04T15:21:59.038Z,41.00
2017-06-04T15:24:25.812Z,40.00
2017-06-04T15:26:53.167Z,41.10
2017-06-04T15:29:20.168Z,40.40
2017-06-04T15:31:46.369Z,40.40
2017-06-04T15:34:12.650Z,39.40
2017-06-04T15:36:38.934Z,40.40
2017-06-04T15:39:05.230Z,40.40
2017-06-04T15:41:32.179Z,39.30
2017-06-04T15:43:58.428Z,40.90
2017-06-04T15:46:25.829Z,40.40
2017-06-04T15:48:52.024Z,40.00
2017-06-04T15:51:19.036Z,40.00
2017-06-04T15:53:45.262Z,41.00
2017-06-04T15:56:11.707Z,39.60
2017-06-04T15:58:38.275Z,38.80
2017-06-04T16:01:06.000Z,39.30
2017-06-04T16:03:32.590Z,39.00
2017-06-04T16:05:58.993Z,39.10
2017-06-04T16:08:26.089Z,39.00
2017-06-04T16:10:53.548Z,39.40
2017-06-04T16:13:19.811Z,40.20
2017-06-04T16:15:47.791Z,40.20
2017-06-04T16:18:14.483Z,39.50
2017-06-04T16:20:40.835Z,40.10
2017-06-04T16:23:07.464Z,40.40
2017-06-04T16:25:33.707Z,41.60
2017-06-04T16:28:00.931Z,39.70
2017-06-04T16:30:27.394Z,40.30
2017-06-04T16:32:53.973Z,39.70
2017-06-04T16:35:20.178Z,39.70
2017-06-04T16:37:47.151Z,42.30
2017-06-04T16:40:13.364Z,41.60
2017-06-04T16:42:39.622Z,40.20
2017-06-04T16:45:05.830Z,41.10
2017-06-04T16:47:32.056Z,41.70
2017-06-04T16:49:58.245Z,40.80
2017-06-04T16:52:24.436Z,40.00
2017-06-04T16:54:50.713Z,41.00
2017-06-04T16:57:16.888Z,40.50
2017-06-04T16:59:43.071Z,40.10
2017-06-04T17:02:10.937Z,42.80
2017-06-04T17:04:37.161Z,43.40
2017-06-04T17:07:03.347Z,45.50
2017-06-04T17:09:29.544Z,41.40
2017-06-04T17:11:57.569Z,42.50
2017-06-04T17:14:23.775Z,43.20
2017-06-04T17:16:49.982Z,41.90
2017-06-04T17:19:16.171Z,41.20
2017-06-04T17:21:42.382Z,41.30
2017-06-04T17:24:08.546Z,41.60
2017-06-04T17:26:36.423Z,43.00
2017-06-04T17:29:02.715Z,42.90
2017-06-04T17:31:28.916Z,43.70
2017-06-04T17:33:55.137Z,44.50
2017-06-04T17:36:21.344Z,43.70
2017-06-04T17:38:47.551Z,42.60
2017-06-04T17:41:13.842Z,44.00
2017-06-04T17:43:40.104Z,44.00
2017-06-04T17:46:06.465Z,43.30
2017-06-04T17:48:33.232Z,43.70
2017-06-04T17:50:59.703Z,44.40
2017-06-04T17:53:27.616Z,44.50
2017-06-04T17:55:54.602Z,45.30
2017-06-04T17:58:21.825Z,46.20
2017-06-04T18:00:49.249Z,46.80
2017-06-04T18:03:16.537Z,48.10
2017-06-04T18:05:42.863Z,47.30
2017-06-04T18:08:09.266Z,47.80
2017-06-04T18:10:36.264Z,47.80
2017-06-04T18:13:02.520Z,47.80
2017-06-04T18:15:28.733Z,47.80
2017-06-04T18:17:54.944Z,48.00
2017-06-04T18:20:22.858Z,48.90
2017-06-04T18:22:49.323Z,48.20
2017-06-04T18:25:15.659Z,48.60
2017-06-04T18:27:48.999Z,48.40
2017-06-04T18:30:15.411Z,48.50
2017-06-04T18:32:41.714Z,49.20
2017-06-04T18:35:08.052Z,49.50
2017-06-04T18:37:34.319Z,49.30
2017-06-04T18:40:01.703Z,49.80
2017-06-04T18:42:28.528Z,49.50
2017-06-04T18:44:54.890Z,49.90
2017-06-04T18:47:21.979Z,51.10
2017-06-04T18:49:48.356Z,50.30
2017-06-04T18:52:14.738Z,50.90
2017-06-04T18:54:42.749Z,50.80
2017-06-04T18:57:09.266Z,49.90
2017-06-04T18:59:36.451Z,50.10
2017-06-04T19:02:02.770Z,49.30
2017-06-04T19:04:30.075Z,49.60
2017-06-04T19:06:56.404Z,49.20
2017-06-04T19:09:23.351Z,49.60
2017-06-04T19:11:49.838Z,48.90
2017-06-04T19:14:18.503Z,49.10
2017-06-04T19:16:53.078Z,49.80
2017-06-04T19:19:19.433Z,48.90
2017-06-04T19:21:45.636Z,49.50
2017-06-04T19:24:11.843Z,49.80
2017-06-04T19:26:38.069Z,49.80
2017-06-04T19:29:04.268Z,49.00
2017-06-04T19:31:31.324Z,49.60
2017-06-04T19:33:58.272Z,49.60
2017-06-04T19:36:24.576Z,50.10
2017-06-04T19:38:50.841Z,49.80
2017-06-04T19:41:17.035Z,50.20
2017-06-04T19:43:43.248Z,50.90
2017-06-04T19:46:09.857Z,50.60
2017-06-04T19:48:36.031Z,50.10
2017-06-04T19:51:02.288Z,51.80
2017-06-04T19:53:28.558Z,51.20
2017-06-04T19:55:54.750Z,51.50
2017-06-04T19:58:20.977Z,52.50
2017-06-04T20:00:47.227Z,52.30
2017-06-04T20:03:13.506Z,52.40
2017-06-04T20:05:39.711Z,52.60
2017-06-04T20:08:06.691Z,52.60
2017-06-04T20:10:32.944Z,51.80
2017-06-04T20:12:59.199Z,52.00
2017-06-04T20:15:26.171Z,51.40
2017-06-04T20:17:52.882Z,52.60
2017-06-04T20:20:19.085Z,52.20
2017-06-04T20:22:45.272Z,52.90
2017-06-04T20:25:11.475Z,52.90
2017-06-04T20:27:38.496Z,53.50
2017-06-04T20:30:04.711Z,53.00
2017-06-04T20:32:32.017Z,53.00
2017-06-04T20:35:00.152Z,53.20
2017-06-04T20:37:27.561Z,53.00
2017-06-04T20:39:53.777Z,53.00
2017-06-04T20:42:20.351Z,53.10
2017-06-04T20:44:47.294Z,52.60
2017-06-04T20:47:14.715Z,52.40
2017-06-04T20:49:41.641Z,53.30
2017-06-04T20:52:07.868Z,52.70
2017-06-04T20:54:34.899Z,52.70
2017-06-04T20:57:01.178Z,53.10
2017-06-04T20:59:27.397Z,53.10
2017-06-04T21:01:53.722Z,53.20
2017-06-04T21:04:19.957Z,53.90
2017-06-04T21:06:47.784Z,53.80
2017-06-04T21:09:14.020Z,53.10
2017-06-04T21:11:40.213Z,53.60
2017-06-04T21:14:06.402Z,53.00
2017-06-04T21:19:28.925Z,54.30
2017-06-04T21:21:55.910Z,54.30
2017-06-04T21:24:22.102Z,54.30
2017-06-04T21:26:48.374Z,54.20
2017-06-04T21:29:14.802Z,54.50
2017-06-04T21:31:41.012Z,54.40
2017-06-04T21:34:07.980Z,55.50
2017-06-04T21:36:34.327Z,53.70
2017-06-04T21:39:00.584Z,54.80
2017-06-04T21:41:26.812Z,55.00
2017-06-04T21:43:53.112Z,55.80
2017-06-04T21:46:19.307Z,55.40
2017-06-04T21:48:47.322Z,56.40
2017-06-04T21:51:13.498Z,55.80
2017-06-04T21:53:40.472Z,57.30
2017-06-04T21:56:06.671Z,56.80
2017-06-04T21:58:33.646Z,57.20
2017-06-04T22:00:59.874Z,57.20
2017-06-04T22:03:26.147Z,58.00
2017-06-04T22:05:52.395Z,58.50
2017-06-04T22:08:18.717Z,58.00
2017-06-04T22:10:44.940Z,58.70
2017-06-04T22:13:11.153Z,58.80
2017-06-04T22:15:37.344Z,58.60
2017-06-04T22:18:03.610Z,58.30
2017-06-04T22:20:30.840Z,58.70
2017-06-04T22:22:58.189Z,58.10
2017-06-04T22:25:24.498Z,58.30
2017-06-04T22:27:51.595Z,58.00
2017-06-04T22:30:17.781Z,58.40
2017-06-04T22:32:44.754Z,58.30
2017-06-04T22:35:10.947Z,58.20
2017-06-04T22:37:37.225Z,58.90
2017-06-04T22:40:03.435Z,58.20
2017-06-04T22:42:29.641Z,58.00
2017-06-04T22:44:55.903Z,57.80
2017-06-04T22:47:22.132Z,58.20
2017-06-04T22:49:48.335Z,57.30
2017-06-04T22:52:14.556Z,57.40
2017-06-04T22:54:41.522Z,57.20
2017-06-04T22:57:07.715Z,57.00
2017-06-04T22:59:33.914Z,57.40
2017-06-04T23:02:00.150Z,57.50
2017-06-04T23:04:26.372Z,58.50
2017-06-04T23:06:53.047Z,58.70
2017-06-04T23:09:20.005Z,59.70
2017-06-04T23:11:46.952Z,58.90
2017-06-04T23:14:13.936Z,58.50
2017-06-04T23:16:40.155Z,58.50
2017-06-04T23:19:06.495Z,58.70
2017-06-04T23:21:33.196Z,58.70
2017-06-04T23:23:59.550Z,58.50
2017-06-04T23:26:26.180Z,58.10
2017-06-04T23:28:52.416Z,58.60
2017-06-04T23:31:18.634Z,59.30
2017-06-04T23:33:46.317Z,58.90
2017-06-04T23:36:12.732Z,58.70
2017-06-04T23:38:39.672Z,59.00
2017-06-04T23:41:07.386Z,58.90
2017-06-04T23:43:34.718Z,58.80
2017-06-04T23:46:00.933Z,59.00
2017-06-04T23:48:27.508Z,59.30
2017-06-04T23:50:53.713Z,59.30
2017-06-04T23:53:20.081Z,59.50
2017-06-04T23:55:46.320Z,59.50
2017-06-04T23:58:12.893Z,59.50
